This is the latest recevied weather packets stored in our database for station/object IT9DBI-3. If no packets are shown the sender has not sent any weather packets the latest 10 day(s).
| Time | Temp. | Humidity | Pressure | Rain* | Wind** | Luminosity | Snow |
|---|---|---|---|---|---|---|---|
| 1777333413 | 13.33° C | 100% | 1017 hPa | - | - | - | - |
| 1777332211 | 13.33° C | 100% | 1017.1 hPa | - | - | - | - |
| 1777331010 | 13.89° C | 100% | 1017.1 hPa | - | - | - | - |
| 1777329809 | 13.89° C | 100% | 1017.1 hPa | - | - | - | - |
| 1777328608 | 13.89° C | 100% | 1017.3 hPa | - | - | - | - |
| 1777327405 | 13.89° C | 100% | 1017.2 hPa | - | - | - | - |
| 1777326204 | 15° C | 100% | 1017.4 hPa | - | - | - | - |
| 1777325002 | 14.44° C | 100% | 1017.4 hPa | - | - | - | - |
| 1777323797 | 14.44° C | 100% | 1017.2 hPa | - | - | - | - |
| 1777322591 | 15° C | 100% | 1017.3 hPa | - | - | - | - |
| 1777321389 | 14.44° C | 100% | 1017.4 hPa | - | - | - | - |
| 1777320183 | 14.44° C | 100% | 1017.5 hPa | - | - | - | - |
| 1777318981 | 15° C | 100% | 1017.5 hPa | - | - | - | - |
| 1777317780 | 15.56° C | 100% | 1017.4 hPa | - | - | - | - |
| 1777316578 | 15.56° C | 99% | 1017.2 hPa | - | - | - | - |
| 1777315377 | 15.56° C | 95% | 1017 hPa | - | - | - | - |
| 1777314176 | 16.11° C | 92% | 1016.9 hPa | - | - | - | - |
| 1777312974 | 16.11° C | 90% | 1016.9 hPa | - | - | - | - |
| 1777311773 | 17.22° C | 84% | 1016.8 hPa | - | - | - | - |
| 1777310572 | 18.33° C | 74% | 1016.6 hPa | - | - | - | - |
| 1777309370 | 19.44° C | 67% | 1016.6 hPa | - | - | - | - |
| 1777308169 | 21.11° C | 59% | 1016.5 hPa | - | - | - | - |
| 1777306967 | 21.67° C | 52% | 1016.6 hPa | - | - | - | - |
| 1777305765 | 22.78° C | 50% | 1016.5 hPa | - | - | - | - |
| 1777304563 | 21.11° C | 53% | 1016.8 hPa | - | - | - | - |
* Rain since midnight (hover to see other rain measurements)
** Current wind speed in m/s (hover to see current wind gust speed)